EDT,Max TemperatureF,Mean TemperatureF,Min TemperatureF,Max Dew PointF,MeanDew PointF,Min DewpointF,Max Humidity, Mean Humidity, Min Humidity, Max Sea Level PressureIn, Mean Sea Level PressureIn, Min Sea Level PressureIn, Max VisibilityMiles, Mean VisibilityMiles, Min VisibilityMiles, Max Wind SpeedMPH, Mean Wind SpeedMPH, Max Gust SpeedMPH,PrecipitationIn, CloudCover, Events, WindDirDegrees
2013-9-1,82,75,68,71,67,64,96,80,54,29.89,29.84,29.78,10,8,2,8,1,,0.00,6,Rain-Thunderstorm,281
2013-9-2,72,70,66,68,67,65,96,91,84,29.88,29.80,29.74,10,8,1,9,1,,1.31,8,Rain-Thunderstorm,106
2013-9-3,73,68,62,66,62,57,96,81,59,29.80,29.75,29.71,10,10,7,12,2,,0.01,7,,262
2013-9-4,76,66,56,61,55,50,95,68,42,29.91,29.85,29.79,10,10,10,13,4,20,0.00,3,Rain,283
2013-9-5,65,54,42,58,45,32,94,67,30,30.16,29.99,29.88,10,10,5,15,4,22,0.02,4,Rain,304
2013-9-6,67,51,35,50,41,35,100,74,34,30.25,30.17,30.08,10,10,0,13,2,17,0.00,0,Fog,280
2013-9-7,72,57,42,53,47,42,98,71,42,30.07,29.96,29.84,10,10,10,10,2,,0.00,3,Rain,279
2013-9-8,60,52,42,55,46,37,94,70,42,30.09,29.88,29.76,10,10,7,22,4,31,0.01,5,Rain,309
2013-9-9,70,53,36,52,42,36,99,74,31,30.22,30.14,30.09,10,10,5,6,1,,0.00,0,,283
2013-9-10,67,56,45,63,53,45,99,94,79,30.13,30.08,30.02,10,7,0,0,0,,0.20,7,Fog-Rain,-1
2013-9-11,92,76,59,72,64,59,97,79,40,30.07,30.01,29.91,10,6,0,12,1,28,0.24,4,Fog-Rain-Thunderstorm,265
2013-9-12,79,72,64,71,66,64,97,90,71,29.99,29.80,29.67,10,6,0,7,1,,0.69,5,Fog-Rain-Thunderstorm,94
2013-9-13,69,62,55,64,58,51,97,87,76,29.79,29.67,29.61,10,8,1,13,4,21,0.27,8,Rain,283
2013-9-14,60,54,48,50,49,46,94,79,65,30.06,29.92,29.78,10,10,4,15,8,21,0.00,6,Rain,283
2013-9-15,68,53,38,52,46,38,99,77,42,30.14,30.08,30.02,10,10,1,9,2,,0.00,0,,284
2013-9-16,59,52,44,54,45,32,96,76,53,30.28,30.09,29.99,10,10,5,16,3,24,0.09,4,Rain,304
2013-9-17,63,50,36,45,38,32,97,68,38,30.43,30.35,30.29,10,10,7,10,5,16,0.00,0,,281
2013-9-18,71,54,36,52,42,36,100,77,27,30.33,30.23,30.12,10,7,0,12,1,,0.00,2,Fog,288
2013-9-19,77,57,37,54,45,32,100,76,21,30.14,30.09,30.02,10,8,0,7,1,,0.00,1,Fog,285
2013-9-20,77,60,42,57,50,42,99,81,37,30.12,30.05,29.99,10,6,0,6,1,,0.00,3,Fog,164
2013-9-21,73,60,48,62,54,48,98,84,50,30.01,29.87,29.68,10,6,0,10,2,18,0.00,7,Fog-Rain,102
2013-9-22,67,58,49,63,51,41,94,74,50,29.84,29.68,29.58,10,10,3,15,4,21,0.50,7,Rain,283
2013-9-23,54,50,46,42,38,35,78,66,52,30.00,29.94,29.84,10,10,10,21,9,29,0.00,6,,309
2013-9-24,61,54,46,43,39,36,72,62,47,29.98,29.92,29.86,10,10,10,16,8,25,0.00,7,,301
2013-9-25,61,52,41,47,44,41,97,68,56,30.01,29.92,29.89,10,10,3,14,8,20,0.00,4,,303
2013-9-26,66,50,35,50,43,36,100,81,47,30.16,30.06,30.02,10,6,0,13,2,18,0.00,3,Fog,281
2013-9-27,68,55,42,54,48,42,98,81,48,30.29,30.22,30.16,10,9,1,9,1,,0.00,5,,283
2013-9-28,73,58,42,57,48,42,99,83,41,30.37,30.31,30.27,10,6,0,6,0,,0.00,4,Fog,134
2013-9-29,71,58,42,59,48,42,99,85,43,30.29,30.19,30.10,10,5,0,8,1,,0.00,4,Fog,112
2013-9-30,71,56,42,57,46,42,99,83,41,30.14,30.05,29.97,10,5,0,8,1,,0.00,4,Fog,110